Time;durP1;ratioP1;P1;durP2;ratioP2;P2;SDS_P1;SDS_P2;PMS_P1;PMS_P2;Temp;Humidity;BMP_temperature;BMP_pressure;BME280_temperature;BME280_humidity;BME280_pressure;Samples;Min_cycle;Max_cycle;Signal;HPM_P1;HPM_P2
2023/01/19 00:04:23;;;;;;;2.60;0.70;;;;;;;18.34;37.24;100148.41;16135786;19;129408;-59
2023/01/19 00:09:45;;;;;;;1.33;0.75;;;;;;;18.31;37.63;100126.78;16136057;19;130045;-58
2023/01/19 00:15:07;;;;;;;1.20;0.60;;;;;;;18.28;37.52;100141.16;16137685;19;129725;-59
2023/01/19 00:20:31;;;;;;;1.50;0.80;;;;;;;18.24;37.68;100151.06;16132931;19;129718;-59
2023/01/19 00:25:53;;;;;;;1.52;0.70;;;;;;;18.21;37.24;100141.38;16131156;19;129595;-59
2023/01/19 00:31:15;;;;;;;1.23;0.50;;;;;;;18.19;37.42;100142.75;16132814;19;130927;-59
2023/01/19 00:36:37;;;;;;;2.05;0.75;;;;;;;18.17;37.13;100153.22;16130996;19;129954;-60
2023/01/19 00:47:39;;;;;;;1.05;0.70;;;;;;;18.10;37.58;100158.97;16131366;19;129798;-59
2023/01/19 00:53:01;;;;;;;1.05;0.70;;;;;;;18.06;37.67;100164.22;16127524;19;129535;-59
2023/01/19 00:58:24;;;;;;;0.95;0.75;;;;;;;18.03;37.57;100167.50;16130115;19;129330;-59
2023/01/19 01:03:45;;;;;;;1.60;0.90;;;;;;;18.01;37.25;100177.97;16131426;19;130453;-59
2023/01/19 01:09:10;;;;;;;1.23;0.60;;;;;;;17.97;37.29;100168.53;16126684;19;129098;-59
2023/01/19 01:14:32;;;;;;;1.90;0.65;;;;;;;17.94;37.27;100167.13;16128358;19;129851;-60
2023/01/19 01:19:54;;;;;;;1.27;0.60;;;;;;;17.91;37.37;100173.16;16128671;19;129508;-59
2023/01/19 01:25:18;;;;;;;0.77;0.50;;;;;;;17.89;37.25;100177.28;16124989;19;129954;-59
2023/01/19 01:30:40;;;;;;;2.53;0.70;;;;;;;17.85;37.65;100168.69;16127272;19;130221;-59
2023/01/19 01:36:02;;;;;;;1.30;0.60;;;;;;;17.82;37.32;100164.50;16122360;19;129666;-60
2023/01/19 01:41:26;;;;;;;1.30;0.70;;;;;;;17.79;37.43;100170.56;16127535;19;130439;-59
2023/01/19 01:46:48;;;;;;;1.42;0.70;;;;;;;17.78;37.59;100170.81;16127419;19;130302;-59
2023/01/19 01:52:10;;;;;;;1.65;0.60;;;;;;;17.75;37.08;100169.41;16125088;19;129612;-59
2023/01/19 01:57:37;;;;;;;0.60;0.40;;;;;;;17.74;37.59;100167.72;16126162;19;129372;-59
2023/01/19 02:02:59;;;;;;;1.63;0.80;;;;;;;17.71;37.30;100178.47;16126289;19;129239;-59
2023/01/19 02:14:19;;;;;;;1.15;0.70;;;;;;;17.66;37.50;100187.53;16128849;19;130100;-59
2023/01/19 02:19:42;;;;;;;1.67;0.70;;;;;;;17.65;37.29;100196.94;16125070;19;129635;-59
2023/01/19 02:25:05;;;;;;;1.60;0.80;;;;;;;17.63;37.21;100196.34;16125980;19;130262;-59
2023/01/19 02:30:27;;;;;;;2.22;0.60;;;;;;;17.60;37.13;100211.53;16126915;19;132976;-59
2023/01/19 02:35:52;;;;;;;1.20;0.50;;;;;;;17.59;37.04;100231.16;16120544;19;129348;-60
2023/01/19 02:41:19;;;;;;;0.90;0.60;;;;;;;17.58;37.28;100235.03;16122704;19;130579;-59
2023/01/19 02:46:41;;;;;;;1.33;0.80;;;;;;;17.56;37.01;100273.16;16122950;19;129052;-59
2023/01/19 02:52:03;;;;;;;1.23;0.70;;;;;;;17.53;37.34;100269.78;16127690;19;130383;-60
2023/01/19 02:57:25;;;;;;;1.17;0.65;;;;;;;17.52;36.97;100265.34;16121283;19;129697;-60
2023/01/19 03:03:14;;;;;;;1.67;0.90;;;;;;;17.52;37.20;100254.28;16124293;19;129636;-59
2023/01/19 03:09:25;;;;;;;1.27;0.60;;;;;;;17.50;37.40;100250.09;16121058;19;128948;-60
2023/01/19 03:14:47;;;;;;;0.82;0.55;;;;;;;17.46;37.12;100244.25;16122709;19;129671;-59
2023/01/19 03:20:12;;;;;;;0.77;0.50;;;;;;;17.45;37.17;100248.09;16134390;19;129638;-59
2023/01/19 03:25:38;;;;;;;1.03;0.60;;;;;;;17.45;37.43;100247.25;16139555;19;129858;-59
2023/01/19 03:31:08;;;;;;;;;;;;;;;17.41;37.08;100235.88;16138677;19;129433;-59
2023/01/19 03:36:36;;;;;;;0.73;0.40;;;;;;;17.41;37.07;100246.94;16139870;19;131333;-59
2023/01/19 03:42:01;;;;;;;1.85;0.73;;;;;;;17.40;37.33;100259.06;16138388;19;129152;-59
2023/01/19 03:47:24;;;;;;;0.95;0.45;;;;;;;17.38;37.09;100269.53;16134915;19;129386;-59
2023/01/19 03:53:05;;;;;;;0.77;0.50;;;;;;;17.39;37.46;100265.69;16136749;19;129710;-59
2023/01/19 03:58:27;;;;;;;1.92;0.80;;;;;;;17.35;37.40;100268.13;16138342;19;129739;-60
2023/01/19 04:03:50;;;;;;;1.98;0.50;;;;;;;17.34;37.19;100255.41;16140851;19;130440;-60
2023/01/19 04:09:12;;;;;;;1.27;0.50;;;;;;;17.34;37.30;100257.34;16137254;19;130593;-60
2023/01/19 04:14:34;;;;;;;1.15;0.52;;;;;;;17.32;37.32;100257.56;16134936;19;131782;-59
2023/01/19 04:19:55;;;;;;;2.83;0.40;;;;;;;17.32;37.25;100265.06;16132939;19;129275;-59
2023/01/19 04:25:17;;;;;;;0.73;0.43;;;;;;;17.30;36.87;100272.75;16134389;19;129972;-59
2023/01/19 04:30:39;;;;;;;1.23;0.50;;;;;;;17.29;36.97;100271.06;16132421;19;129407;-59
2023/01/19 04:36:01;;;;;;;1.00;0.60;;;;;;;17.26;37.24;100271.56;16131892;19;129235;-59
2023/01/19 04:41:22;;;;;;;1.45;0.65;;;;;;;17.24;37.21;100258.84;16132072;19;130370;-59
2023/01/19 04:46:44;;;;;;;0.65;0.52;;;;;;;17.24;37.02;100266.31;16132396;19;129988;-59
2023/01/19 04:52:06;;;;;;;0.98;0.50;;;;;;;17.23;37.15;100264.63;16133092;19;129493;-60
2023/01/19 04:57:29;;;;;;;0.93;0.50;;;;;;;17.21;36.84;100262.13;16128634;19;131154;-60
2023/01/19 05:02:50;;;;;;;0.55;0.43;;;;;;;17.21;37.17;100278.72;16133027;19;129880;-59
2023/01/19 05:08:12;;;;;;;1.77;0.50;;;;;;;17.20;36.71;100281.72;16131541;19;129617;-60
2023/01/19 05:13:35;;;;;;;1.20;0.40;;;;;;;17.18;37.07;100284.75;16128231;19;130150;-59
2023/01/19 05:18:57;;;;;;;1.00;0.57;;;;;;;17.17;37.23;100290.53;16130245;19;129392;-60
2023/01/19 05:24:19;;;;;;;0.73;0.60;;;;;;;17.16;36.93;100299.91;16129763;19;130672;-60
2023/01/19 05:29:40;;;;;;;1.63;0.80;;;;;;;17.15;37.00;100306.53;16132098;19;131236;-60
2023/01/19 05:35:02;;;;;;;0.70;0.50;;;;;;;17.14;37.03;100302.09;16129813;19;132106;-59
2023/01/19 05:40:24;;;;;;;1.27;0.70;;;;;;;17.12;36.75;100307.03;16127482;19;129857;-60
2023/01/19 05:45:46;;;;;;;0.88;0.50;;;;;;;17.10;37.00;100323.88;16128252;19;129937;-60
2023/01/19 05:51:08;;;;;;;1.15;0.55;;;;;;;17.09;36.76;100322.19;16124576;19;129224;-60
2023/01/19 05:56:30;;;;;;;2.15;0.43;;;;;;;17.10;36.71;100325.78;16128037;19;129860;-59
2023/01/19 06:01:52;;;;;;;1.00;0.50;;;;;;;17.08;36.89;100328.81;16125886;19;128927;-59
2023/01/19 06:07:14;;;;;;;1.08;0.60;;;;;;;17.06;36.84;100337.31;16125298;19;130080;-60
2023/01/19 06:12:40;;;;;;;1.88;0.57;;;;;;;17.06;36.74;100340.09;16122288;19;130020;-60
2023/01/19 06:18:02;;;;;;;;;;;;;;;17.02;36.99;100344.47;16128051;19;130247;-59
2023/01/19 06:23:24;;;;;;;0.77;0.30;;;;;;;17.04;36.62;100347.81;16125427;19;130165;-60
2023/01/19 06:28:47;;;;;;;0.40;0.40;;;;;;;17.03;37.14;100348.91;16127807;19;129287;-60
2023/01/19 06:34:09;;;;;;;1.15;0.40;;;;;;;17.03;36.85;100356.34;16123701;19;129902;-62
2023/01/19 06:39:31;;;;;;;1.25;0.45;;;;;;;17.04;36.88;100355.25;16123063;19;129397;-60
2023/01/19 06:44:53;;;;;;;1.00;0.60;;;;;;;17.03;36.75;100361.88;16111985;19;130849;-61
2023/01/19 06:50:15;;;;;;;0.60;0.40;;;;;;;17.03;36.77;100367.41;16113849;19;129428;-61
2023/01/19 06:55:38;;;;;;;2.28;0.50;;;;;;;17.03;36.70;100372.91;16146031;19;130656;-60
2023/01/19 07:01:09;;;;;;;1.20;0.60;;;;;;;17.03;36.71;100384.84;16152539;19;129696;-61
2023/01/19 07:06:31;;;;;;;1.65;0.60;;;;;;;17.02;37.03;100396.13;16151883;19;129865;-59
2023/01/19 07:11:53;;;;;;;0.88;0.50;;;;;;;17.01;36.67;100400.81;16152880;19;128930;-61
2023/01/19 07:17:15;;;;;;;1.67;0.70;;;;;;;16.99;36.67;100399.38;16152397;19;129300;-61
2023/01/19 07:22:37;;;;;;;0.80;0.47;;;;;;;16.99;36.72;100404.88;16151330;19;130539;-60
2023/01/19 07:27:58;;;;;;;2.25;0.50;;;;;;;16.97;36.70;100416.19;16149628;19;129451;-61
2023/01/19 07:33:21;;;;;;;1.40;0.40;;;;;;;16.96;37.14;100416.47;16151540;19;130081;-60
2023/01/19 07:38:43;;;;;;;3.67;0.90;;;;;;;16.93;36.85;100423.31;16152455;19;130432;-61
2023/01/19 07:44:04;;;;;;;2.25;0.68;;;;;;;16.92;37.05;100428.00;16149773;19;129624;-61
2023/01/19 07:49:26;;;;;;;0.95;0.55;;;;;;;16.90;36.94;100430.16;16148246;19;129667;-61
2023/01/19 07:54:49;;;;;;;2.28;0.65;;;;;;;16.90;36.66;100445.91;16146135;19;129448;-61
2023/01/19 08:00:13;;;;;;;3.83;0.70;;;;;;;16.90;36.71;100457.78;16148191;19;130124;-60
2023/01/19 08:05:35;;;;;;;2.00;0.60;;;;;;;16.87;36.75;100458.28;16135897;19;129523;-61
2023/01/19 08:10:57;;;;;;;2.92;0.73;;;;;;;16.88;36.92;100461.91;16133580;19;129298;-60
2023/01/19 08:16:19;;;;;;;1.65;0.60;;;;;;;16.86;37.03;100464.88;16136890;19;130008;-60
2023/01/19 08:21:40;;;;;;;3.67;0.63;;;;;;;16.85;36.87;100474.28;16138642;19;130542;-60
2023/01/19 08:27:02;;;;;;;1.15;0.60;;;;;;;16.83;36.68;100484.75;16134307;19;134255;-60
2023/01/19 08:32:24;;;;;;;1.52;0.50;;;;;;;16.83;36.61;100484.75;16132618;19;129597;-61
2023/01/19 08:37:46;;;;;;;2.22;0.70;;;;;;;16.81;37.00;100484.16;16131019;19;129295;-60
2023/01/19 08:43:14;;;;;;;2.55;0.68;;;;;;;16.81;36.97;100497.09;16132002;19;130034;-61
2023/01/19 08:48:36;;;;;;;1.92;0.63;;;;;;;16.80;36.67;100500.97;16128921;19;130328;-60
2023/01/19 08:54:00;;;;;;;1.33;0.82;;;;;;;16.86;37.04;100511.03;16127584;19;129610;-61
2023/01/19 08:59:22;;;;;;;1.75;0.68;;;;;;;17.07;36.67;100512.28;16127749;19;129278;-60
2023/01/19 09:04:43;;;;;;;1.40;0.55;;;;;;;17.32;36.11;100502.81;16128152;19;129617;-62
2023/01/19 09:10:06;;;;;;;0.90;0.68;;;;;;;17.53;36.30;100502.09;16128421;19;129578;-60
2023/01/19 09:15:29;;;;;;;1.05;0.50;;;;;;;17.73;35.69;100513.81;16123942;19;129259;-61
2023/01/19 09:20:51;;;;;;;1.45;0.70;;;;;;;17.79;35.87;100519.19;16126629;19;128958;-61
2023/01/19 09:26:12;;;;;;;1.65;0.43;;;;;;;17.79;35.68;100524.72;16126018;19;130880;-61
2023/01/19 09:31:34;;;;;;;1.77;0.82;;;;;;;17.75;35.52;100533.75;16124217;19;129568;-61
2023/01/19 09:36:56;;;;;;;3.42;1.20;;;;;;;17.71;35.21;100536.19;16126195;19;129312;-61
2023/01/19 09:42:25;;;;;;;4.22;1.10;;;;;;;17.65;35.19;100537.19;16126902;19;129235;-60
2023/01/19 09:47:49;;;;;;;1.85;1.02;;;;;;;17.59;35.17;100544.53;16125090;19;129650;-61
2023/01/19 09:53:49;;;;;;;2.03;1.15;;;;;;;17.51;35.09;100551.28;16124571;19;129664;-61
2023/01/19 09:59:23;;;;;;;3.80;1.20;;;;;;;17.44;34.62;100556.16;16125850;19;130799;-61
2023/01/19 10:04:57;;;;;;;2.17;1.00;;;;;;;17.36;34.92;100564.81;16124868;19;129357;-61
2023/01/19 10:10:27;;;;;;;4.15;1.35;;;;;;;17.32;35.11;100566.41;16121646;19;129756;-61
2023/01/19 10:16:30;;;;;;;3.75;1.40;;;;;;;17.25;34.98;100569.31;16122558;19;129408;-61
2023/01/19 10:21:56;;;;;;;4.68;1.60;;;;;;;17.21;34.93;100570.88;16108451;19;129114;-61
2023/01/19 10:27:33;;;;;;;3.35;1.30;;;;;;;17.16;34.75;100570.78;16108294;19;129662;-60
2023/01/19 10:32:54;;;;;;;3.80;1.42;;;;;;;17.11;34.76;100581.72;16107964;19;130236;-60
2023/01/19 10:38:20;;;;;;;1.95;1.40;;;;;;;17.07;35.06;100579.44;16109316;19;129584;-61
2023/01/19 10:43:44;;;;;;;5.30;1.65;;;;;;;17.03;34.90;100582.94;16112582;19;131241;-61
2023/01/19 10:49:24;;;;;;;3.60;1.40;;;;;;;17.01;35.10;100571.28;16112754;19;130549;-60
2023/01/19 10:54:47;;;;;;;7.30;1.38;;;;;;;16.96;35.12;100577.56;16109999;19;129802;-60
2023/01/19 11:00:39;;;;;;;5.38;1.60;;;;;;;16.93;35.16;100575.28;16119670;19;129217;-60
2023/01/19 11:06:16;;;;;;;3.15;1.58;;;;;;;16.89;35.17;100566.63;16121428;19;129482;-60
2023/01/19 11:11:44;;;;;;;4.28;1.40;;;;;;;16.85;35.06;100568.22;16121586;19;129891;-61
2023/01/19 11:17:18;;;;;;;5.20;1.83;;;;;;;16.85;35.20;100575.66;16121586;19;130512;-61
2023/01/19 11:22:40;;;;;;;6.82;1.92;;;;;;;16.80;35.23;100579.16;16120067;19;130053;-60
2023/01/19 11:28:02;;;;;;;6.68;1.70;;;;;;;16.78;35.17;100581.31;16121017;19;129532;-61
2023/01/19 11:33:33;;;;;;;5.65;1.60;;;;;;;16.78;35.18;100575.78;16119102;19;129433;-61
2023/01/19 11:39:03;;;;;;;5.95;1.83;;;;;;;16.75;35.20;100573.50;16126170;19;129483;-60
2023/01/19 11:44:51;;;;;;;4.65;1.85;;;;;;;16.73;34.84;100578.47;16133834;19;129422;-60
2023/01/19 11:50:23;;;;;;;5.65;1.80;;;;;;;16.71;34.85;100575.91;16130851;19;130128;-61
2023/01/19 11:56:00;;;;;;;7.53;1.90;;;;;;;16.68;34.89;100581.91;16132107;19;129345;-61
2023/01/19 12:01:31;;;;;;;4.80;1.75;;;;;;;16.68;35.08;100583.84;16130068;19;129918;-60
2023/01/19 12:06:54;;;;;;;2.33;1.73;;;;;;;16.68;35.22;100581.09;16129946;19;129905;-61
2023/01/19 12:12:29;;;;;;;5.18;1.60;;;;;;;16.81;34.72;100575.31;16130403;19;129128;-61
2023/01/19 12:17:57;;;;;;;9.40;2.10;;;;;;;17.04;34.49;100573.56;16131961;19;130222;-61
2023/01/19 12:23:57;;;;;;;5.72;1.80;;;;;;;17.30;34.13;100571.34;16131941;19;129556;-60
2023/01/19 12:29:22;;;;;;;7.40;1.95;;;;;;;17.47;33.94;100566.72;16127998;19;129486;-60
2023/01/19 12:34:46;;;;;;;4.50;1.73;;;;;;;17.60;33.79;100571.13;16132219;19;129391;-61
2023/01/19 12:40:26;;;;;;;9.20;1.88;;;;;;;17.66;33.66;100570.13;16131464;19;129688;-61
2023/01/19 12:45:48;;;;;;;4.97;1.67;;;;;;;17.63;33.80;100575.31;16129834;19;130092;-61
2023/01/19 12:51:22;;;;;;;5.78;1.48;;;;;;;17.60;33.71;100564.75;16125880;19;129958;-61
2023/01/19 12:56:44;;;;;;;4.40;1.58;;;;;;;17.53;33.70;100564.88;16128749;19;129621;-61
2023/01/19 13:02:25;;;;;;;4.60;1.85;;;;;;;17.47;33.60;100563.94;16129385;19;129787;-61
2023/01/19 13:08:03;;;;;;;4.85;1.80;;;;;;;17.39;33.74;100562.41;16128985;19;129701;-61
2023/01/19 13:13:30;;;;;;;6.00;2.00;;;;;;;17.32;33.90;100569.19;16128155;19;130191;-61
2023/01/19 13:18:54;;;;;;;3.45;1.88;;;;;;;17.25;33.67;100563.78;16127888;19;131327;-61
2023/01/19 13:24:21;;;;;;;3.67;1.88;;;;;;;17.20;34.06;100570.06;16127582;19;129380;-61
2023/01/19 13:29:43;;;;;;;3.35;1.60;;;;;;;17.16;34.04;100577.16;16129892;19;129696;-61
2023/01/19 13:35:12;;;;;;;3.03;1.83;;;;;;;17.12;34.23;100573.19;16129158;19;129834;-60
2023/01/19 13:40:39;;;;;;;5.63;1.50;;;;;;;17.08;33.96;100574.78;16126866;19;129403;-61
2023/01/19 13:46:02;;;;;;;4.35;1.60;;;;;;;17.04;34.22;100579.09;16126401;19;128866;-61
2023/01/19 13:51:24;;;;;;;4.35;1.80;;;;;;;17.00;34.33;100584.28;16126376;19;129556;-61
2023/01/19 13:56:48;;;;;;;4.20;1.88;;;;;;;16.95;34.13;100578.63;16125967;19;128962;-61
2023/01/19 14:02:12;;;;;;;5.63;1.88;;;;;;;16.92;34.03;100577.22;16124197;19;129478;-61
2023/01/19 14:07:34;;;;;;;3.88;1.88;;;;;;;16.88;34.42;100581.53;16121849;19;129984;-55
2023/01/19 14:13:17;;;;;;;4.78;1.90;;;;;;;16.86;34.63;100578.16;16123886;19;129969;-61
2023/01/19 14:18:39;;;;;;;5.85;1.90;;;;;;;16.82;34.58;100588.03;16121345;19;129903;-61
2023/01/19 14:24:22;;;;;;;2.70;1.80;;;;;;;16.81;34.39;100585.50;16122786;19;129438;-61
2023/01/19 14:29:46;;;;;;;2.72;1.77;;;;;;;16.77;34.48;100593.44;16120337;19;129849;-60
2023/01/19 14:35:07;;;;;;;2.17;1.75;;;;;;;16.74;34.47;100593.91;16123848;19;130362;-60
2023/01/19 14:40:30;;;;;;;4.70;2.30;;;;;;;16.72;34.17;100590.59;16120278;19;129395;-60
2023/01/19 14:45:53;;;;;;;3.00;1.80;;;;;;;16.71;34.65;100591.66;16123719;19;129836;-60
2023/01/19 14:51:19;;;;;;;3.33;1.92;;;;;;;16.69;34.57;100588.28;16123038;19;129598;-61
2023/01/19 14:56:41;;;;;;;3.85;1.83;;;;;;;16.66;34.22;100589.63;16121184;19;130494;-61
2023/01/19 15:02:02;;;;;;;4.28;2.38;;;;;;;16.65;34.34;100598.09;16122259;19;131394;-61
2023/01/19 15:07:24;;;;;;;3.10;1.50;;;;;;;16.62;34.27;100596.69;16121148;19;130065;-60
2023/01/19 15:12:48;;;;;;;5.25;1.88;;;;;;;16.63;34.03;100601.13;16123382;19;130130;-61
2023/01/19 15:18:16;;;;;;;5.70;2.00;;;;;;;16.71;34.51;100602.72;16137430;19;129314;-63
2023/01/19 15:23:37;;;;;;;10.23;3.35;;;;;;;16.85;33.81;100598.63;16135757;19;130221;-60
2023/01/19 15:28:59;;;;;;;32.40;3.92;;;;;;;17.05;33.12;100605.66;16131926;19;131347;-61
2023/01/19 15:34:21;;;;;;;13.63;2.40;;;;;;;17.28;32.85;100623.28;16134193;19;129527;-61
2023/01/19 15:39:42;;;;;;;12.77;2.65;;;;;;;17.48;33.06;100617.31;16136618;19;131356;-61
2023/01/19 15:45:23;;;;;;;7.15;2.05;;;;;;;17.62;32.88;100620.66;16135306;19;129211;-62
2023/01/19 15:50:46;;;;;;;7.20;2.05;;;;;;;17.65;32.73;100628.47;16134668;19;129434;-62
2023/01/19 15:56:16;;;;;;;7.13;1.85;;;;;;;17.63;32.95;100633.41;16132092;19;129679;-61
2023/01/19 16:01:39;;;;;;;8.57;1.90;;;;;;;17.56;32.66;100635.50;16131593;19;129626;-62
2023/01/19 16:07:01;;;;;;;4.35;1.77;;;;;;;17.51;33.20;100639.78;16131421;19;129561;-62
2023/01/19 16:12:38;;;;;;;6.10;1.42;;;;;;;17.45;33.05;100642.69;16127808;19;130663;-62
2023/01/19 16:18:00;;;;;;;3.05;1.65;;;;;;;17.39;33.23;100650.91;16129721;19;129534;-62
2023/01/19 16:23:21;;;;;;;3.55;1.52;;;;;;;17.34;33.28;100647.19;16124144;19;129386;-62
2023/01/19 16:28:43;;;;;;;5.20;1.65;;;;;;;17.30;33.65;100662.59;16127143;19;129608;-62
2023/01/19 16:34:06;;;;;;;6.03;1.60;;;;;;;17.24;33.29;100656.09;16130234;19;129617;-61
2023/01/19 16:39:27;;;;;;;4.95;1.60;;;;;;;17.17;33.88;100664.53;16128654;19;131417;-62
2023/01/19 16:44:49;;;;;;;13.00;2.58;;;;;;;17.15;33.63;100674.97;16128575;19;129276;-61
2023/01/19 16:50:11;;;;;;;15.32;2.53;;;;;;;17.12;33.23;100667.16;16129159;19;129440;-61
2023/01/19 16:55:33;;;;;;;12.48;2.70;;;;;;;17.08;33.29;100663.22;16126746;19;130580;-61
2023/01/19 17:00:55;;;;;;;10.43;2.03;;;;;;;17.03;33.66;100671.38;16124441;19;129905;-61
2023/01/19 17:06:21;;;;;;;5.15;1.73;;;;;;;17.00;33.61;100677.38;16124474;19;129570;-61
2023/01/19 17:11:43;;;;;;;15.30;2.65;;;;;;;16.96;33.52;100692.78;16126615;19;129975;-61
2023/01/19 17:17:08;;;;;;;5.95;2.25;;;;;;;16.89;33.55;100693.75;16126775;19;130345;-62
2023/01/19 17:22:29;;;;;;;14.40;4.03;;;;;;;16.84;33.78;100685.34;16125152;19;129518;-61
2023/01/19 17:27:51;;;;;;;6.28;3.53;;;;;;;16.83;33.82;100704.91;16128196;19;129361;-61
2023/01/19 17:33:13;;;;;;;8.27;3.35;;;;;;;16.80;33.51;100706.25;16130739;19;129572;-61
2023/01/19 17:38:35;;;;;;;10.10;3.60;;;;;;;16.90;33.72;100706.47;16124857;19;129344;-61
2023/01/19 17:43:58;;;;;;;9.77;3.35;;;;;;;17.42;33.36;100702.09;16127496;19;129085;-61
2023/01/19 17:49:20;;;;;;;10.80;3.03;;;;;;;18.06;32.73;100709.50;16125659;19;129700;-62
2023/01/19 17:54:42;;;;;;;10.43;3.20;;;;;;;18.67;32.21;100706.19;16126059;19;129970;-61
2023/01/19 18:00:06;;;;;;;11.65;3.83;;;;;;;19.22;31.74;100712.88;16125332;19;130984;-62
2023/01/19 18:05:28;;;;;;;8.57;3.30;;;;;;;19.62;31.53;100705.34;16124470;19;129552;-62
2023/01/19 18:10:57;;;;;;;13.45;3.80;;;;;;;20.01;31.54;100711.91;16125896;19;129821;-62
2023/01/19 18:16:24;;;;;;;10.93;4.43;;;;;;;20.16;31.12;100708.44;16120654;19;130446;-61
2023/01/19 18:21:47;;;;;;;9.00;3.75;;;;;;;20.16;31.21;100700.13;16124034;19;131006;-62
2023/01/19 18:27:09;;;;;;;9.60;4.22;;;;;;;20.06;31.47;100709.22;16122329;19;129506;-62
2023/01/19 18:32:33;;;;;;;6.68;3.88;;;;;;;19.93;31.34;100716.81;16122342;19;129334;-62
2023/01/19 18:37:57;;;;;;;6.93;3.92;;;;;;;19.76;31.90;100721.59;16124948;19;129205;-56
2023/01/19 18:43:19;;;;;;;16.88;5.57;;;;;;;19.56;31.78;100717.47;16044477;19;158919;-60
2023/01/19 18:48:40;;;;;;;13.80;4.93;;;;;;;19.41;32.36;100722.81;16118805;19;129321;-59
2023/01/19 18:54:02;;;;;;;15.05;5.43;;;;;;;19.34;32.48;100725.78;16122078;19;129492;-59
2023/01/19 18:59:24;;;;;;;16.35;6.88;;;;;;;19.22;32.22;100723.09;16121708;19;129669;-59
2023/01/19 19:04:46;;;;;;;20.63;6.30;;;;;;;19.15;32.74;100723.25;16119520;19;129684;-58
2023/01/19 19:10:08;;;;;;;34.75;6.90;;;;;;;19.13;32.99;100727.38;16121473;19;130484;-58
2023/01/19 19:15:31;;;;;;;27.33;6.15;;;;;;;19.27;33.33;100728.75;16120271;19;129458;-56
2023/01/19 19:20:53;;;;;;;27.60;5.97;;;;;;;19.54;33.12;100741.88;16117366;19;130114;-59
2023/01/19 19:26:15;;;;;;;18.17;4.60;;;;;;;19.84;32.85;100746.97;16120015;19;129928;-57
2023/01/19 19:31:37;;;;;;;16.92;4.78;;;;;;;20.16;33.08;100761.22;16118709;19;130242;-57
2023/01/19 19:36:58;;;;;;;13.30;4.57;;;;;;;20.43;32.80;100762.06;16120791;19;129408;-56
2023/01/19 19:42:22;;;;;;;12.50;4.32;;;;;;;20.66;32.65;100757.28;16117205;19;130544;-55
2023/01/19 19:47:44;;;;;;;16.48;3.90;;;;;;;20.84;32.13;100769.97;16118265;19;133642;-54
2023/01/19 19:53:05;;;;;;;7.63;3.60;;;;;;;20.99;32.03;100772.03;16116532;19;129494;-59
2023/01/19 19:58:29;;;;;;;17.90;3.65;;;;;;;21.11;32.40;100769.06;16116913;19;133157;-60
2023/01/19 20:03:51;;;;;;;22.35;4.90;;;;;;;21.18;32.05;100774.41;16135615;19;129720;-60
2023/01/19 20:09:14;;;;;;;15.80;4.15;;;;;;;21.28;31.76;100779.22;16134741;19;129046;-60
2023/01/19 20:14:36;;;;;;;18.25;3.30;;;;;;;21.37;31.81;100797.06;16130777;19;129367;-60
2023/01/19 20:19:58;;;;;;;15.70;3.63;;;;;;;21.49;31.92;100791.31;16133330;19;128964;-59
2023/01/19 20:25:20;;;;;;;14.82;3.10;;;;;;;21.59;31.76;100804.47;16132435;19;130344;-56
2023/01/19 20:30:41;;;;;;;13.18;3.35;;;;;;;21.64;31.56;100804.50;16135662;19;129757;-57
2023/01/19 20:36:04;;;;;;;12.63;3.60;;;;;;;21.61;31.78;100805.03;16129601;19;129527;-57
2023/01/19 20:41:26;;;;;;;11.70;3.38;;;;;;;21.49;31.62;100808.88;16131547;19;129971;-56
2023/01/19 20:46:48;;;;;;;8.00;3.15;;;;;;;21.36;31.86;100823.22;16133162;19;129585;-56
2023/01/19 20:52:10;;;;;;;7.45;2.97;;;;;;;21.22;32.29;100832.03;16125786;19;129545;-59
2023/01/19 20:57:32;;;;;;;6.60;2.58;;;;;;;21.10;32.89;100845.28;16126845;19;129571;-52
2023/01/19 21:02:55;;;;;;;7.22;2.75;;;;;;;20.96;32.46;100846.81;16126465;19;130863;-59
2023/01/19 21:08:17;;;;;;;9.20;2.90;;;;;;;20.82;33.08;100866.72;16126766;19;129440;-60
2023/01/19 21:13:39;;;;;;;13.88;3.03;;;;;;;20.71;32.95;100871.31;16129012;19;129341;-60
2023/01/19 21:19:01;;;;;;;4.50;2.13;;;;;;;20.60;33.52;100880.66;16128141;19;129454;-59
2023/01/19 21:24:22;;;;;;;6.80;2.00;;;;;;;20.52;33.48;100884.72;16120789;19;130603;-57
2023/01/19 21:29:46;;;;;;;8.25;2.20;;;;;;;20.52;33.18;100893.06;16121851;19;131551;-57
2023/01/19 21:35:08;;;;;;;11.68;2.88;;;;;;;20.55;33.40;100906.44;16124602;19;131108;-59
2023/01/19 21:40:30;;;;;;;10.63;2.17;;;;;;;20.55;33.99;100922.25;16125146;19;129758;-50
2023/01/19 21:45:52;;;;;;;15.20;3.03;;;;;;;20.46;33.79;100952.44;16125888;19;130143;-52
2023/01/19 21:51:14;;;;;;;14.73;2.90;;;;;;;20.34;33.67;100958.13;16123612;19;129695;-54
2023/01/19 21:56:37;;;;;;;10.70;2.80;;;;;;;20.20;34.02;100951.28;16122337;19;129510;-50
2023/01/19 22:01:58;;;;;;;15.25;2.70;;;;;;;20.09;33.86;100961.38;16125173;19;129214;-57
2023/01/19 22:07:20;;;;;;;7.80;2.65;;;;;;;19.95;33.88;100961.72;16124018;19;129475;-53
2023/01/19 22:12:42;;;;;;;10.15;2.67;;;;;;;19.84;34.22;100973.75;16124887;19;132492;-57
2023/01/19 22:18:04;;;;;;;12.48;3.22;;;;;;;19.71;34.03;100977.72;16122417;19;129920;-57
2023/01/19 22:23:26;;;;;;;8.32;2.40;;;;;;;19.56;34.44;100978.31;16123459;19;130767;-54
2023/01/19 22:28:52;;;;;;;10.20;2.45;;;;;;;19.45;34.32;100984.75;16124734;19;129789;-53
2023/01/19 22:34:15;;;;;;;5.78;2.38;;;;;;;19.34;34.55;100987.34;16111501;19;129630;-56
2023/01/19 22:39:37;;;;;;;9.70;2.42;;;;;;;19.22;34.83;100989.34;16110528;19;131727;-61
2023/01/19 22:44:59;;;;;;;8.60;2.20;;;;;;;19.12;34.82;100995.53;16113053;19;131182;-58
2023/01/19 22:50:21;;;;;;;4.93;2.17;;;;;;;19.05;34.90;100990.13;16113802;19;131285;-59
2023/01/19 22:55:42;;;;;;;4.90;2.08;;;;;;;18.96;34.45;100983.28;16116848;19;133240;-55
2023/01/19 23:01:09;;;;;;;5.65;1.70;;;;;;;18.87;34.87;100988.41;16115979;19;130300;-60
2023/01/19 23:06:34;;;;;;;7.18;1.83;;;;;;;18.80;34.79;100986.84;16116365;19;130422;-62
2023/01/19 23:11:57;;;;;;;7.78;1.83;;;;;;;18.72;34.81;100985.31;16119557;19;129562;-54
2023/01/19 23:17:19;;;;;;;4.75;1.90;;;;;;;18.65;34.88;100982.69;16112260;19;129549;-54
2023/01/19 23:22:40;;;;;;;4.90;2.17;;;;;;;18.59;35.08;100969.78;16116557;19;129729;-52
2023/01/19 23:28:05;;;;;;;3.78;1.70;;;;;;;18.52;34.79;100967.19;16116052;19;133451;-50
2023/01/19 23:33:27;;;;;;;6.23;2.00;;;;;;;18.48;35.14;100976.19;16117886;19;129817;-54
2023/01/19 23:38:51;;;;;;;2.95;1.55;;;;;;;18.43;34.97;100975.03;16129434;19;129597;-56
2023/01/19 23:44:13;;;;;;;3.92;1.65;;;;;;;18.39;35.11;100976.59;16129767;19;130107;-54
2023/01/19 23:49:35;;;;;;;2.22;1.50;;;;;;;18.35;34.94;100982.81;16128258;19;130805;-53
2023/01/19 23:54:57;;;;;;;6.00;1.90;;;;;;;18.31;35.05;101001.88;16127429;19;130089;-51
